Westview Chinook — VG3278 — position and weather

sailwx.info

Track history (hours):
 
Tides and Currents Weather Stations Pressure Air Temp Water Temp Dewpoint Dewpoint Depression Visibility Wind Speed Wind Dir Waves Ship Positions

Westview Chinook

Last reported at 2016-Dec-03 00:31 UTC. Time now 2016-Dec-03 11:39 UTC.
Position N 49°13' W 122°50'.

Length 15 m.

Type: Tug. MMSI: 316005622.

Date/timePositionNaut miles runAvg speedWind from/ knotsBaromVisibWave heightAir tempDewpointWater temp
2016-Dec-03 00:31N 49°13' W 122°50'7 7.0
2016-Dec-02 23:33N 49°12' W 123°00'5 5.1
2016-Dec-02 22:33N 49°12' W 123°08'2 1.8
2016-Dec-02 21:33N 49°12' W 123°05'0 0.0
2016-Dec-02 20:33N 49°12' W 123°05'0 0.0
2016-Dec-02 19:33N 49°12' W 123°05'0 0.0
2016-Dec-02 18:33N 49°12' W 123°05'0 0.0
2016-Dec-02 17:33N 49°12' W 123°05'0 0.0
2016-Dec-02 16:33N 49°12' W 123°05'0 0.0
2016-Dec-02 15:33N 49°12' W 123°05'0 0.0
2016-Dec-02 14:33N 49°12' W 123°05'0 0.0
2016-Dec-02 13:33N 49°12' W 123°05'0 0.0
2016-Dec-02 12:33N 49°12' W 123°05'0 0.0
2016-Dec-02 11:33N 49°12' W 123°05'0 0.0
2016-Dec-02 10:33N 49°12' W 123°05'0 0.0
2016-Dec-02 09:33N 49°12' W 123°05'0 0.0
2016-Dec-02 08:33N 49°12' W 123°05'0 0.0
2016-Dec-02 07:33N 49°12' W 123°05'0 0.0
2016-Dec-02 06:33N 49°12' W 123°05'0 0.0
2016-Dec-02 05:33N 49°12' W 123°05'0 0.0
2016-Dec-02 04:33N 49°12' W 123°05'0 0.0
2016-Dec-02 03:33N 49°12' W 123°05'0 0.0
2016-Dec-02 02:33N 49°12' W 123°05'0 0.0
2016-Dec-02 01:33N 49°12' W 123°05'0 0.0
2016-Dec-02 00:33N 49°12' W 123°05'0 0.0
2016-Dec-01 23:33N 49°12' W 123°05'0 0.0
2016-Dec-01 22:33N 49°12' W 123°05'0 0.0
2016-Dec-01 21:33N 49°12' W 123°05'0 0.0
2016-Dec-01 20:33N 49°12' W 123°05'0 0.0
2016-Dec-01 19:33N 49°12' W 123°05'0 0.0
2016-Dec-01 18:33N 49°12' W 123°05'0 0.0
2016-Dec-01 17:33N 49°12' W 123°05'0 0.0
2016-Dec-01 16:33N 49°12' W 123°05'4 4.1
2016-Dec-01 15:33N 49°11' W 122°59'2 1.8
2016-Dec-01 14:33N 49°09' W 123°00'2 1.7
2016-Dec-01 13:33N 49°09' W 123°03'6 5.9
2016-Dec-01 12:33N 49°07' W 123°11'6 5.6
2016-Dec-01 11:33N 49°06' W 123°20'5 5.0
2016-Dec-01 10:33N 49°08' W 123°27'6 6.0
2016-Dec-01 09:33N 49°10' W 123°36'6 6.0
2016-Dec-01 08:31N 49°12' W 123°44'4 1.3
2016-Dec-01 05:21N 49°14' W 123°39'7 9.1
2016-Dec-01 04:33N 49°15' W 123°28'8 8.3
2016-Dec-01 03:33N 49°15' W 123°15'8 8.1
2016-Dec-01 02:33N 49°12' W 123°04'1 0.6
2016-Dec-01 01:33N 49°12' W 123°03'0 0.0
2016-Dec-01 00:33N 49°12' W 123°03'0 0.0
2016-Nov-30 23:33N 49°12' W 123°03'0 0.0
2016-Nov-30 22:33N 49°12' W 123°03'0 0.0
2016-Nov-30 21:33N 49°12' W 123°03'3 3.4
2016-Nov-30 20:33N 49°11' W 122°58'2 1.9
2016-Nov-30 19:33N 49°11' W 122°55'0 0.0
2016-Nov-30 18:33N 49°11' W 122°55'5 4.5
2016-Nov-30 17:33N 49°09' W 123°01'7 7.0
2016-Nov-30 16:33N 49°07' W 123°11'0 0.0
2016-Nov-30 15:33N 49°07' W 123°11'0 0.0
2016-Nov-30 14:33N 49°07' W 123°11'0 0.3
2016-Nov-30 13:33N 49°07' W 123°11'0 0.0
2016-Nov-30 12:33N 49°07' W 123°11'4 3.7
2016-Nov-30 11:33N 49°07' W 123°17'8 8.0
2016-Nov-30 10:33N 49°09' W 123°28'9 7.7
2016-Nov-30 09:25N 49°12' W 123°41'1 0.2
2016-Nov-30 06:08N 49°12' W 123°40'5 8.1
2016-Nov-30 05:33N 49°10' W 123°33'8 8.4
2016-Nov-30 04:33N 49°07' W 123°21'9 9.0
2016-Nov-30 03:33N 49°07' W 123°08'8 8.1
2016-Nov-30 02:33N 49°10' W 122°56'8 7.9
2016-Nov-30 01:33N 49°14' W 122°46'0 0.0
2016-Nov-30 00:33N 49°14' W 122°46'0 0.0
2016-Nov-29 23:33N 49°14' W 122°46'0 0.0
2016-Nov-29 22:33N 49°14' W 122°46'2 2.0
2016-Nov-29 21:33N 49°13' W 122°49'4 4.0
2016-Nov-29 20:33N 49°12' W 122°55'0 0.0
2016-Nov-29 19:33N 49°12' W 122°55'1 1.1
2016-Nov-29 18:34N 49°11' W 122°55'2 1.6
2016-Nov-29 17:33N 49°11' W 122°57'2 1.9
2016-Nov-29 16:33N 49°09' W 122°57'6 5.6
2016-Nov-29 15:32N 49°13' W 122°51'5 4.7
2016-Nov-29 14:33N 49°15' W 122°44'1 0.7
2016-Nov-29 13:33N 49°14' W 122°45'1 0.8
2016-Nov-29 12:33N 49°14' W 122°46'0 0.0
2016-Nov-29 11:33N 49°14' W 122°46'2 2.4
2016-Nov-29 10:33N 49°13' W 122°43'1 0.6
2016-Nov-29 09:33N 49°12' W 122°42'2 1.9
2016-Nov-29 08:33N 49°12' W 122°39'3 3.1
2016-Nov-29 07:33N 49°13' W 122°44'2 2.3
2016-Nov-29 06:31N 49°11' W 122°41'4 4.5
2016-Nov-29 05:33N 49°13' W 122°47'5 4.7
2016-Nov-29 04:33N 49°12' W 122°54'6 6.4
2016-Nov-29 03:33N 49°12' W 123°04'3 2.6
2016-Nov-29 02:33N 49°12' W 123°08'0 0.0
2016-Nov-29 01:33N 49°12' W 123°08'0 0.0
2016-Nov-29 00:33N 49°12' W 123°08'0 0.0
2016-Nov-28 23:33N 49°12' W 123°08'0 0.0
2016-Nov-28 22:33N 49°12' W 123°08'0 0.0
2016-Nov-28 21:33N 49°12' W 123°08'2 1.9
2016-Nov-28 20:34N 49°12' W 123°05'0 0.0
2016-Nov-28 19:34N 49°12' W 123°05'0 0.0
2016-Nov-28 18:34N 49°12' W 123°05'0 0.0
2016-Nov-28 17:34N 49°12' W 123°05'0 0.0
2016-Nov-28 16:34N 49°12' W 123°05'4 3.9
2016-Nov-28 15:33N 49°11' W 122°59'8 7.8
2016-Nov-28 14:33N 49°13' W 122°48'2 1.6
2016-Nov-28 13:33N 49°14' W 122°46'0 0.0
2016-Nov-28 12:33N 49°14' W 122°46'0 0.0
2016-Nov-28 11:33N 49°14' W 122°46'0 0.0
2016-Nov-28 10:34N 49°14' W 122°46'0 0.0
2016-Nov-28 09:33N 49°14' W 122°46'0 0.0
2016-Nov-28 08:33N 49°14' W 122°46'0 0.0
2016-Nov-28 07:33N 49°14' W 122°46'0 0.0
2016-Nov-28 06:33N 49°14' W 122°46'0 0.0
2016-Nov-28 05:34N 49°14' W 122°46'0 0.0
2016-Nov-28 04:33N 49°14' W 122°46'0 0.0
2016-Nov-28 03:33N 49°14' W 122°46'0 0.0
2016-Nov-28 02:32N 49°14' W 122°46'0 0.0
2016-Nov-27 23:33N 49°14' W 122°46'0 0.0
2016-Nov-27 22:33N 49°14' W 122°46'2 1.6
2016-Nov-27 21:32N 49°15' W 122°44'0 0.3
2016-Nov-27 20:33N 49°15' W 122°43'0 0.3
2016-Nov-27 19:33N 49°15' W 122°43'1 1.2
2016-Nov-27 18:33N 49°14' W 122°45'0 0.0
2016-Nov-27 17:34N 49°14' W 122°45'0 0.0
2016-Nov-27 16:34N 49°15' W 122°44'1 1.1
2016-Nov-27 15:33N 49°14' W 122°46'0 0.0
2016-Nov-27 14:33N 49°14' W 122°46'0 0.0
2016-Nov-27 13:33N 49°14' W 122°46'9 8.8
2016-Nov-27 12:33N 49°09' W 122°57'9 9.2
2016-Nov-27 11:33N 49°07' W 123°11'9 9.1
2016-Nov-27 10:34N 49°07' W 123°25'1110.5
2016-Nov-27 09:33N 49°10' W 123°40'1 0.4
2016-Nov-27 06:14N 49°11' W 123°38'5 6.7
2016-Nov-27 05:32N 49°09' W 123°31'7 7.0
2016-Nov-27 04:33N 49°07' W 123°21'10 9.6
2016-Nov-27 03:33N 49°07' W 123°07'9 9.0
2016-Nov-27 02:33N 49°11' W 122°55'7 6.5
2016-Nov-27 01:33N 49°14' W 122°46'0 0.0
2016-Nov-27 00:33N 49°14' W 122°46'0 0.0
2016-Nov-26 23:33N 49°14' W 122°46'0 0.0
2016-Nov-26 22:33N 49°14' W 122°46'0 0.0
2016-Nov-26 21:33N 49°14' W 122°46'0 0.0
2016-Nov-26 20:33N 49°14' W 122°46'0 0.0
2016-Nov-26 19:33N 49°14' W 122°46'0 0.0
2016-Nov-26 18:33N 49°14' W 122°46'0 0.0
2016-Nov-26 17:33N 49°14' W 122°46'0 0.0
2016-Nov-26 16:33N 49°14' W 122°46'3 2.7
2016-Nov-26 15:33N 49°13' W 122°50'8 8.1
2016-Nov-26 14:33N 49°09' W 123°01'3 3.4
2016-Nov-26 13:33N 49°07' W 123°05'5 5.3
2016-Nov-26 12:33N 49°08' W 123°13'5 5.4
2016-Nov-26 11:33N 49°06' W 123°21'6 5.3
2016-Nov-26 10:31N 49°08' W 123°29'6 5.7
2016-Nov-26 09:29N 49°11' W 123°37'1 0.2
2016-Nov-26 05:21N 49°10' W 123°36'810.2
2016-Nov-26 04:33N 49°07' W 123°25'1111.2
2016-Nov-26 03:33N 49°07' W 123°08'1110.9
2016-Nov-26 02:33N 49°13' W 122°54'3 0.8
2016-Nov-25 23:25N 49°13' W 122°50'5 6.3
2016-Nov-25 22:33N 49°11' W 122°58'2 1.7
2016-Nov-25 21:33N 49°10' W 122°56'5 4.9
2016-Nov-25 20:33N 49°08' W 123°03'0 0.1
2016-Nov-25 19:33N 49°08' W 123°03'0 0.0
2016-Nov-25 18:33N 49°08' W 123°03'0 0.0
2016-Nov-25 17:33N 49°08' W 123°03'2 2.5
2016-Nov-25 16:33N 49°09' W 122°59'3 3.4
2016-Nov-25 15:33N 49°11' W 122°55'2 1.6
2016-Nov-25 14:33N 49°13' W 122°54'0 0.0
2016-Nov-25 13:33N 49°13' W 122°54'0 0.0
2016-Nov-25 12:33N 49°13' W 122°54'0 0.0
2016-Nov-25 11:33N 49°13' W 122°54'4 4.1
2016-Nov-25 10:33N 49°09' W 122°57'5 5.1
2016-Nov-25 09:33N 49°13' W 122°52'6 5.7
2016-Nov-25 08:32N 49°11' W 122°43'1 1.2
2016-Nov-25 07:33N 49°11' W 122°42'6 6.2
2016-Nov-25 06:33N 49°13' W 122°51'6 5.7
2016-Nov-25 05:33N 49°09' W 122°57'6 5.9
2016-Nov-25 04:32N 49°13' W 122°50'4 3.9
2016-Nov-25 03:33N 49°15' W 122°44'0 0.3
2016-Nov-25 02:33N 49°15' W 122°44'1 0.8
2016-Nov-25 01:33N 49°14' W 122°45'0 0.2
2016-Nov-25 00:33N 49°14' W 122°45'2 1.5
2016-Nov-24 23:33N 49°13' W 122°44'2 2.1
2016-Nov-24 22:23N 49°11' W 122°42'6 7.4
2016-Nov-24 21:33N 49°13' W 122°51'7 7.2
2016-Nov-24 20:33N 49°09' W 123°00'0 0.0
2016-Nov-24 19:33N 49°09' W 123°00'5 4.6
2016-Nov-24 18:33N 49°12' W 122°55'0 0.0
2016-Nov-24 17:33N 49°12' W 122°55'0 0.0
2016-Nov-24 16:33N 49°12' W 122°55'0 0.0
2016-Nov-24 15:33N 49°12' W 122°55'0 0.2
2016-Nov-24 14:33N 49°12' W 122°54'1 0.7
2016-Nov-24 13:33N 49°13' W 122°54'0 0.0
2016-Nov-24 12:33N 49°13' W 122°54'2 2.0
2016-Nov-24 11:33N 49°11' W 122°55'1 1.0
2016-Nov-24 10:33N 49°12' W 122°55'2 2.0
2016-Nov-24 09:33N 49°13' W 122°53'5 5.4
2016-Nov-24 08:33N 49°09' W 122°58'1 0.9
2016-Nov-24 07:33N 49°09' W 122°57'4 3.8
2016-Nov-24 06:33N 49°13' W 122°54'1 1.0
2016-Nov-24 05:33N 49°13' W 122°53'5 4.9
2016-Nov-24 04:33N 49°09' W 122°57'6 6.1
2016-Nov-24 03:33N 49°13' W 122°50'0 0.2
2016-Nov-24 02:33N 49°13' W 122°50'3 2.9
2016-Nov-24 01:33N 49°14' W 122°46'0 0.0
2016-Nov-24 00:33N 49°14' W 122°46'4 3.7
2016-Nov-23 23:33N 49°13' W 122°52'6 5.5
2016-Nov-23 22:32N 49°12' W 122°43'0 0.1
2016-Nov-23 21:31N 49°11' W 122°44'3 3.1
2016-Nov-23 20:33N 49°14' W 122°45'7 6.7
2016-Nov-23 19:33N 49°12' W 122°54'2 2.4
2016-Nov-23 18:33N 49°10' W 122°56'1 1.2
2016-Nov-23 17:33N 49°11' W 122°55'5 4.7
2016-Nov-23 16:33N 49°09' W 123°02'1 0.8
2016-Nov-23 15:33N 49°08' W 123°03'4 3.9
2016-Nov-23 14:33N 49°06' W 123°08'3 3.3
2016-Nov-23 13:33N 49°08' W 123°13'4 3.5
2016-Nov-23 12:33N 49°06' W 123°18'4 4.3
2016-Nov-23 11:33N 49°08' W 123°24'6 6.1
2016-Nov-23 10:33N 49°10' W 123°33'6 6.1
2016-Nov-23 09:33N 49°12' W 123°42'6 6.0
2016-Nov-23 08:33N 49°13' W 123°51'4 3.7
2016-Nov-23 07:33N 49°09' W 123°53'6 6.3
2016-Nov-23 06:33N 49°13' W 123°45'27 9.2
2016-Nov-23 03:33N 49°08' W 123°04'10 9.8
2016-Nov-23 02:33N 49°13' W 122°51'3 1.6
2016-Nov-23 00:33N 49°14' W 122°46'  
Track history (hours):
 
Tides and Currents Weather Stations Pressure Air Temp Water Temp Dewpoint Dewpoint Depression Visibility Wind Speed Wind Dir Waves Ship Positions

Westview Chinook

Last reported at 2016-Dec-03 00:31 UTC. Time now 2016-Dec-03 11:39 UTC.
Position N 49°13' W 122°50'.

Length 15 m.

Type: Tug. MMSI: 316005622.

Date/timePositionNaut miles runAvg speedWind from/ knotsBaromVisibWave heightAir tempDewpointWater temp
2016-Dec-03 00:31N 49°13' W 122°50'7 7.0
2016-Dec-02 23:33N 49°12' W 123°00'5 5.1
2016-Dec-02 22:33N 49°12' W 123°08'2 1.8
2016-Dec-02 21:33N 49°12' W 123°05'0 0.0
2016-Dec-02 20:33N 49°12' W 123°05'0 0.0
2016-Dec-02 19:33N 49°12' W 123°05'0 0.0
2016-Dec-02 18:33N 49°12' W 123°05'0 0.0
2016-Dec-02 17:33N 49°12' W 123°05'0 0.0
2016-Dec-02 16:33N 49°12' W 123°05'0 0.0
2016-Dec-02 15:33N 49°12' W 123°05'0 0.0
2016-Dec-02 14:33N 49°12' W 123°05'0 0.0
2016-Dec-02 13:33N 49°12' W 123°05'0 0.0
2016-Dec-02 12:33N 49°12' W 123°05'0 0.0
2016-Dec-02 11:33N 49°12' W 123°05'0 0.0
2016-Dec-02 10:33N 49°12' W 123°05'0 0.0
2016-Dec-02 09:33N 49°12' W 123°05'0 0.0
2016-Dec-02 08:33N 49°12' W 123°05'0 0.0
2016-Dec-02 07:33N 49°12' W 123°05'0 0.0
2016-Dec-02 06:33N 49°12' W 123°05'0 0.0
2016-Dec-02 05:33N 49°12' W 123°05'0 0.0
2016-Dec-02 04:33N 49°12' W 123°05'0 0.0
2016-Dec-02 03:33N 49°12' W 123°05'0 0.0
2016-Dec-02 02:33N 49°12' W 123°05'0 0.0
2016-Dec-02 01:33N 49°12' W 123°05'0 0.0
2016-Dec-02 00:33N 49°12' W 123°05'0 0.0
2016-Dec-01 23:33N 49°12' W 123°05'0 0.0
2016-Dec-01 22:33N 49°12' W 123°05'0 0.0
2016-Dec-01 21:33N 49°12' W 123°05'0 0.0
2016-Dec-01 20:33N 49°12' W 123°05'0 0.0
2016-Dec-01 19:33N 49°12' W 123°05'0 0.0
2016-Dec-01 18:33N 49°12' W 123°05'0 0.0
2016-Dec-01 17:33N 49°12' W 123°05'0 0.0
2016-Dec-01 16:33N 49°12' W 123°05'4 4.1
2016-Dec-01 15:33N 49°11' W 122°59'2 1.8
2016-Dec-01 14:33N 49°09' W 123°00'2 1.7
2016-Dec-01 13:33N 49°09' W 123°03'6 5.9
2016-Dec-01 12:33N 49°07' W 123°11'6 5.6
2016-Dec-01 11:33N 49°06' W 123°20'5 5.0
2016-Dec-01 10:33N 49°08' W 123°27'6 6.0
2016-Dec-01 09:33N 49°10' W 123°36'6 6.0
2016-Dec-01 08:31N 49°12' W 123°44'4 1.3
2016-Dec-01 05:21N 49°14' W 123°39'7 9.1
2016-Dec-01 04:33N 49°15' W 123°28'8 8.3
2016-Dec-01 03:33N 49°15' W 123°15'8 8.1
2016-Dec-01 02:33N 49°12' W 123°04'1 0.6
2016-Dec-01 01:33N 49°12' W 123°03'0 0.0
2016-Dec-01 00:33N 49°12' W 123°03'0 0.0
2016-Nov-30 23:33N 49°12' W 123°03'0 0.0
2016-Nov-30 22:33N 49°12' W 123°03'0 0.0
2016-Nov-30 21:33N 49°12' W 123°03'3 3.4
2016-Nov-30 20:33N 49°11' W 122°58'2 1.9
2016-Nov-30 19:33N 49°11' W 122°55'0 0.0
2016-Nov-30 18:33N 49°11' W 122°55'5 4.5
2016-Nov-30 17:33N 49°09' W 123°01'7 7.0
2016-Nov-30 16:33N 49°07' W 123°11'0 0.0
2016-Nov-30 15:33N 49°07' W 123°11'0 0.0
2016-Nov-30 14:33N 49°07' W 123°11'0 0.3
2016-Nov-30 13:33N 49°07' W 123°11'0 0.0
2016-Nov-30 12:33N 49°07' W 123°11'4 3.7
2016-Nov-30 11:33N 49°07' W 123°17'8 8.0
2016-Nov-30 10:33N 49°09' W 123°28'9 7.7
2016-Nov-30 09:25N 49°12' W 123°41'1 0.2
2016-Nov-30 06:08N 49°12' W 123°40'5 8.1
2016-Nov-30 05:33N 49°10' W 123°33'8 8.4
2016-Nov-30 04:33N 49°07' W 123°21'9 9.0
2016-Nov-30 03:33N 49°07' W 123°08'8 8.1
2016-Nov-30 02:33N 49°10' W 122°56'8 7.9
2016-Nov-30 01:33N 49°14' W 122°46'0 0.0
2016-Nov-30 00:33N 49°14' W 122°46'0 0.0
2016-Nov-29 23:33N 49°14' W 122°46'0 0.0
2016-Nov-29 22:33N 49°14' W 122°46'2 2.0
2016-Nov-29 21:33N 49°13' W 122°49'4 4.0
2016-Nov-29 20:33N 49°12' W 122°55'0 0.0
2016-Nov-29 19:33N 49°12' W 122°55'1 1.1
2016-Nov-29 18:34N 49°11' W 122°55'2 1.6
2016-Nov-29 17:33N 49°11' W 122°57'2 1.9
2016-Nov-29 16:33N 49°09' W 122°57'6 5.6
2016-Nov-29 15:32N 49°13' W 122°51'5 4.7
2016-Nov-29 14:33N 49°15' W 122°44'1 0.7
2016-Nov-29 13:33N 49°14' W 122°45'1 0.8
2016-Nov-29 12:33N 49°14' W 122°46'0 0.0
2016-Nov-29 11:33N 49°14' W 122°46'2 2.4
2016-Nov-29 10:33N 49°13' W 122°43'1 0.6
2016-Nov-29 09:33N 49°12' W 122°42'2 1.9
2016-Nov-29 08:33N 49°12' W 122°39'3 3.1
2016-Nov-29 07:33N 49°13' W 122°44'2 2.3
2016-Nov-29 06:31N 49°11' W 122°41'4 4.5
2016-Nov-29 05:33N 49°13' W 122°47'5 4.7
2016-Nov-29 04:33N 49°12' W 122°54'6 6.4
2016-Nov-29 03:33N 49°12' W 123°04'3 2.6
2016-Nov-29 02:33N 49°12' W 123°08'0 0.0
2016-Nov-29 01:33N 49°12' W 123°08'0 0.0
2016-Nov-29 00:33N 49°12' W 123°08'0 0.0
2016-Nov-28 23:33N 49°12' W 123°08'0 0.0
2016-Nov-28 22:33N 49°12' W 123°08'0 0.0
2016-Nov-28 21:33N 49°12' W 123°08'2 1.9
2016-Nov-28 20:34N 49°12' W 123°05'0 0.0
2016-Nov-28 19:34N 49°12' W 123°05'0 0.0
2016-Nov-28 18:34N 49°12' W 123°05'0 0.0
2016-Nov-28 17:34N 49°12' W 123°05'0 0.0
2016-Nov-28 16:34N 49°12' W 123°05'4 3.9
2016-Nov-28 15:33N 49°11' W 122°59'8 7.8
2016-Nov-28 14:33N 49°13' W 122°48'2 1.6
2016-Nov-28 13:33N 49°14' W 122°46'0 0.0
2016-Nov-28 12:33N 49°14' W 122°46'0 0.0
2016-Nov-28 11:33N 49°14' W 122°46'0 0.0
2016-Nov-28 10:34N 49°14' W 122°46'0 0.0
2016-Nov-28 09:33N 49°14' W 122°46'0 0.0
2016-Nov-28 08:33N 49°14' W 122°46'0 0.0
2016-Nov-28 07:33N 49°14' W 122°46'0 0.0
2016-Nov-28 06:33N 49°14' W 122°46'0 0.0
2016-Nov-28 05:34N 49°14' W 122°46'0 0.0
2016-Nov-28 04:33N 49°14' W 122°46'0 0.0
2016-Nov-28 03:33N 49°14' W 122°46'0 0.0
2016-Nov-28 02:32N 49°14' W 122°46'0 0.0
2016-Nov-27 23:33N 49°14' W 122°46'0 0.0
2016-Nov-27 22:33N 49°14' W 122°46'2 1.6
2016-Nov-27 21:32N 49°15' W 122°44'0 0.3
2016-Nov-27 20:33N 49°15' W 122°43'0 0.3
2016-Nov-27 19:33N 49°15' W 122°43'1 1.2
2016-Nov-27 18:33N 49°14' W 122°45'0 0.0
2016-Nov-27 17:34N 49°14' W 122°45'0 0.0
2016-Nov-27 16:34N 49°15' W 122°44'1 1.1
2016-Nov-27 15:33N 49°14' W 122°46'0 0.0
2016-Nov-27 14:33N 49°14' W 122°46'0 0.0
2016-Nov-27 13:33N 49°14' W 122°46'9 8.8
2016-Nov-27 12:33N 49°09' W 122°57'9 9.2
2016-Nov-27 11:33N 49°07' W 123°11'9 9.1
2016-Nov-27 10:34N 49°07' W 123°25'1110.5
2016-Nov-27 09:33N 49°10' W 123°40'1 0.4
2016-Nov-27 06:14N 49°11' W 123°38'5 6.7
2016-Nov-27 05:32N 49°09' W 123°31'7 7.0
2016-Nov-27 04:33N 49°07' W 123°21'10 9.6
2016-Nov-27 03:33N 49°07' W 123°07'9 9.0
2016-Nov-27 02:33N 49°11' W 122°55'7 6.5
2016-Nov-27 01:33N 49°14' W 122°46'0 0.0
2016-Nov-27 00:33N 49°14' W 122°46'0 0.0
2016-Nov-26 23:33N 49°14' W 122°46'0 0.0
2016-Nov-26 22:33N 49°14' W 122°46'0 0.0
2016-Nov-26 21:33N 49°14' W 122°46'0 0.0
2016-Nov-26 20:33N 49°14' W 122°46'0 0.0
2016-Nov-26 19:33N 49°14' W 122°46'0 0.0
2016-Nov-26 18:33N 49°14' W 122°46'0 0.0
2016-Nov-26 17:33N 49°14' W 122°46'0 0.0
2016-Nov-26 16:33N 49°14' W 122°46'3 2.7
2016-Nov-26 15:33N 49°13' W 122°50'8 8.1
2016-Nov-26 14:33N 49°09' W 123°01'3 3.4
2016-Nov-26 13:33N 49°07' W 123°05'5 5.3
2016-Nov-26 12:33N 49°08' W 123°13'5 5.4
2016-Nov-26 11:33N 49°06' W 123°21'6 5.3
2016-Nov-26 10:31N 49°08' W 123°29'6 5.7
2016-Nov-26 09:29N 49°11' W 123°37'1 0.2
2016-Nov-26 05:21N 49°10' W 123°36'810.2
2016-Nov-26 04:33N 49°07' W 123°25'1111.2
2016-Nov-26 03:33N 49°07' W 123°08'1110.9
2016-Nov-26 02:33N 49°13' W 122°54'3 0.8
2016-Nov-25 23:25N 49°13' W 122°50'5 6.3
2016-Nov-25 22:33N 49°11' W 122°58'2 1.7
2016-Nov-25 21:33N 49°10' W 122°56'5 4.9
2016-Nov-25 20:33N 49°08' W 123°03'0 0.1
2016-Nov-25 19:33N 49°08' W 123°03'0 0.0
2016-Nov-25 18:33N 49°08' W 123°03'0 0.0
2016-Nov-25 17:33N 49°08' W 123°03'2 2.5
2016-Nov-25 16:33N 49°09' W 122°59'3 3.4
2016-Nov-25 15:33N 49°11' W 122°55'2 1.6
2016-Nov-25 14:33N 49°13' W 122°54'0 0.0
2016-Nov-25 13:33N 49°13' W 122°54'0 0.0
2016-Nov-25 12:33N 49°13' W 122°54'0 0.0
2016-Nov-25 11:33N 49°13' W 122°54'4 4.1
2016-Nov-25 10:33N 49°09' W 122°57'5 5.1
2016-Nov-25 09:33N 49°13' W 122°52'6 5.7
2016-Nov-25 08:32N 49°11' W 122°43'1 1.2
2016-Nov-25 07:33N 49°11' W 122°42'6 6.2
2016-Nov-25 06:33N 49°13' W 122°51'6 5.7
2016-Nov-25 05:33N 49°09' W 122°57'6 5.9
2016-Nov-25 04:32N 49°13' W 122°50'4 3.9
2016-Nov-25 03:33N 49°15' W 122°44'0 0.3
2016-Nov-25 02:33N 49°15' W 122°44'1 0.8
2016-Nov-25 01:33N 49°14' W 122°45'0 0.2
2016-Nov-25 00:33N 49°14' W 122°45'2 1.5
2016-Nov-24 23:33N 49°13' W 122°44'2 2.1
2016-Nov-24 22:23N 49°11' W 122°42'6 7.4
2016-Nov-24 21:33N 49°13' W 122°51'7 7.2
2016-Nov-24 20:33N 49°09' W 123°00'0 0.0
2016-Nov-24 19:33N 49°09' W 123°00'5 4.6
2016-Nov-24 18:33N 49°12' W 122°55'0 0.0
2016-Nov-24 17:33N 49°12' W 122°55'0 0.0
2016-Nov-24 16:33N 49°12' W 122°55'0 0.0
2016-Nov-24 15:33N 49°12' W 122°55'0 0.2
2016-Nov-24 14:33N 49°12' W 122°54'1 0.7
2016-Nov-24 13:33N 49°13' W 122°54'0 0.0
2016-Nov-24 12:33N 49°13' W 122°54'2 2.0
2016-Nov-24 11:33N 49°11' W 122°55'1 1.0
2016-Nov-24 10:33N 49°12' W 122°55'2 2.0
2016-Nov-24 09:33N 49°13' W 122°53'5 5.4
2016-Nov-24 08:33N 49°09' W 122°58'1 0.9
2016-Nov-24 07:33N 49°09' W 122°57'4 3.8
2016-Nov-24 06:33N 49°13' W 122°54'1 1.0
2016-Nov-24 05:33N 49°13' W 122°53'5 4.9
2016-Nov-24 04:33N 49°09' W 122°57'6 6.1
2016-Nov-24 03:33N 49°13' W 122°50'0 0.2
2016-Nov-24 02:33N 49°13' W 122°50'3 2.9
2016-Nov-24 01:33N 49°14' W 122°46'0 0.0
2016-Nov-24 00:33N 49°14' W 122°46'4 3.7
2016-Nov-23 23:33N 49°13' W 122°52'6 5.5
2016-Nov-23 22:32N 49°12' W 122°43'0 0.1
2016-Nov-23 21:31N 49°11' W 122°44'3 3.1
2016-Nov-23 20:33N 49°14' W 122°45'7 6.7
2016-Nov-23 19:33N 49°12' W 122°54'2 2.4
2016-Nov-23 18:33N 49°10' W 122°56'1 1.2
2016-Nov-23 17:33N 49°11' W 122°55'5 4.7
2016-Nov-23 16:33N 49°09' W 123°02'1 0.8
2016-Nov-23 15:33N 49°08' W 123°03'4 3.9
2016-Nov-23 14:33N 49°06' W 123°08'3 3.3
2016-Nov-23 13:33N 49°08' W 123°13'4 3.5
2016-Nov-23 12:33N 49°06' W 123°18'4 4.3
2016-Nov-23 11:33N 49°08' W 123°24'6 6.1
2016-Nov-23 10:33N 49°10' W 123°33'6 6.1
2016-Nov-23 09:33N 49°12' W 123°42'6 6.0
2016-Nov-23 08:33N 49°13' W 123°51'4 3.7
2016-Nov-23 07:33N 49°09' W 123°53'6 6.3
2016-Nov-23 06:33N 49°13' W 123°45'27 9.2
2016-Nov-23 03:33N 49°08' W 123°04'10 9.8
2016-Nov-23 02:33N 49°13' W 122°51'3 1.6
2016-Nov-23 00:33N 49°14' W 122°46'  

Dump ship's entire track history